Terminal Aerodrome Forecast
Issued by NWS

Home | Current Version | Previous Version | Graphics & Text | Print | Product List | Glossary On
Versions: 1 2 3 4 5 6 7 8 9 10 11 12 13 14 15 16 17 18
000
FTUS41 KCLE 250500
TAFFDY
TAF
KFDY 250539Z 2506/2606 19010KT P6SM SCT080 BKN200
     FM251400 20015G25KT P6SM SCT050 BKN120
     FM251600 22020G30KT P6SM VCSH BKN050 OVC120
     FM251800 22024G32KT 6SM -SHRA VCTS BKN045CB
     FM252000 23015G25KT P6SM SCT050 BKN250
     FM260000 24010KT P6SM SCT040 BKN250=

USA.gov is the U.S. government's official web portal to all federal, state and local government web resources and services.